Impacts METAR Board
IDs:

KMNZ - Hamilton Muni, TX, US

Updated at: 0900 UTC 26 May 2019
Potential Impact None Slight Moderate High
Time 25/21Z 25/22Z 25/23Z 26/00Z 26/01Z 26/02Z 26/03Z 26/04Z 26/05Z 26/06Z 26/07Z 26/08Z 26/09Z
Temp87 88 86 84 82 80 79 77 76 74 72 71 71
Dewpt69 69 68 68 69 68 67 67 66 66 66 67 70
Altim30.00 29.99 29.98 29.97 29.96 29.98 30.01 30.01 30.02 30.03 30.03 30.01 30.02
VIS10 10 10 10 10 10 10 10 10 10 10 10 10
CIG60 -- -- -- -- -- -- -- -- -- -- -- --
CoverBKNSCTSCTSCTSCTSCTCLRCLRCLRCLRCLRSCTSCT
FltCatVFRVFRVFRVFRVFRVFRVFRVFRVFRVFRVFRVFRVFR
WX--------------------------
WDir160150160160150160160170170170170160160
WSpd14 15 16 16 12 9 9 10 11 7 10 11 9
WGst21 19 25 -- -- -- -- -- -- -- -- -- --
Raw hourly METARs
KMNZ 252055Z AUTO 16014G21KT 10SM SCT039 SCT045 BKN060 31/21 A3000 RMK AO2 T03080206
KMNZ 252155Z AUTO 15015G19KT 10SM SCT090 31/21 A2999 RMK AO2 T03120206
KMNZ 252255Z AUTO 16016G25KT 10SM SCT042 SCT048 SCT055 30/20 A2998 RMK AO2 T02980200
KMNZ 252355Z AUTO 16016KT 10SM SCT042 29/20 A2997 RMK AO2 T02900198 10318 20286
KMNZ 260055Z AUTO 15012KT 10SM SCT050 28/21 A2996 RMK AO2 T02800205
KMNZ 260155Z AUTO 16009KT 10SM SCT038 SCT047 27/20 A2998 RMK AO2 T02670200
KMNZ 260255Z AUTO 16009KT 10SM CLR 26/20 A3001 RMK AO2 T02620195
KMNZ 260355Z AUTO 17010KT 10SM CLR 25/19 A3001 RMK AO2 T02520193
KMNZ 260455Z AUTO 17011KT 10SM CLR 25/19 A3002 RMK AO2 T02470190
KMNZ 260555Z AUTO 17007KT 10SM CLR 23/19 A3003 RMK AO2 T02320190 10291 20232 403180218
KMNZ 260655Z AUTO 17010KT 10SM CLR 22/19 A3003 RMK AO2 T02230187
KMNZ 260755Z AUTO 16011KT 10SM SCT019 22/19 A3001 RMK AO2 T02170192
KMNZ 260855Z AUTO 16009KT 10SM SCT024 21/21 A3002 RMK AO2 T02140210